Terminal Aerodrome Forecast
Issued by NWS Wilmington, OH

Current Version | Previous Version | Graphics & Text | Print | Product List | Glossary On
Versions: 1 2 3 4 5 6 7 8 9 10 11 12 13 14 15 16 17 18 19 20 21 22
000
FTUS41 KILN 172300
TAFDAY
TAF
KDAY 172323Z 1800/1824 27012G18KT P6SM OVC050
     FM180400 28012KT P6SM OVC035
     FM180800 29012KT P6SM OVC015
     FM181300 30012G22KT P6SM OVC018
     FM181800 31012G24KT P6SM VCSH OVC025
     FM182300 32010G18KT P6SM BKN025=

USA.gov is the U.S. government's official web portal to all federal, state and local government web resources and services.